Aviation Digital Data Service (ADDS)

Output produced by METARs form (0624 UTC 19 March 2019)
found at http://www.aviationweather.gov/metar/data/
 
Forecast for: VTUO (BURIRUM , TH)
Text: TAF VTUO 190500Z 1906/2006 22006KT 7000 FEW035
Forecast period: 0600 to 2200 UTC 19 March 2019
Forecast type: FROM: standard forecast or significant change
Winds: from the SW (220 degrees) at 7 MPH (6 knots; 3.1 m/s)
Visibility: 4 miles (7 km)
Ceiling: at least 12,000 feet AGL
Clouds: few clouds at 3500 feet AGL
Weather: no significant weather forecast for this period
Text: BECMG 1922/1924 5000 BR NSC
Forecast period: 2200 UTC 19 March 2019 to 0200 UTC 20 March 2019
Forecast type: BECOMING: Conditions expected to become as follows by 0000 UTC 20 March 2019
Winds: from the SW (220 degrees) at 7 MPH (6 knots; 3.1 m/s)
Visibility: 3 miles (5 km)
Ceiling: unknown
Clouds: missing
Weather: BR  (mist)
Text: BECMG 2002/2004 7000 FEW035
Forecast period: 0200 to 0600 UTC 20 March 2019
Forecast type: BECOMING: Conditions expected to become as follows by 0400 UTC 20 March 2019
Winds: from the SW (220 degrees) at 7 MPH (6 knots; 3.1 m/s)
Visibility: 4 miles (7 km)
Ceiling: at least 12,000 feet AGL
Clouds: few clouds at 3500 feet AGL
Weather: BR  (mist)